sensor_id;sensor_type;location;lat;lon;timestamp;temperature;humidity
20158;DHT22;10239;56.820;24.416;2022-09-17T00:01:22;13.00;99.90
20158;DHT22;10239;56.820;24.416;2022-09-17T00:03:54;13.00;99.90
20158;DHT22;10239;56.820;24.416;2022-09-17T00:06:24;13.00;99.90
20158;DHT22;10239;56.820;24.416;2022-09-17T00:08:52;13.00;99.90
20158;DHT22;10239;56.820;24.416;2022-09-17T00:11:27;13.00;99.90
20158;DHT22;10239;56.820;24.416;2022-09-17T00:13:57;13.00;99.90
20158;DHT22;10239;56.820;24.416;2022-09-17T00:16:37;13.00;99.90
20158;DHT22;10239;56.820;24.416;2022-09-17T00:19:07;13.00;99.90
20158;DHT22;10239;56.820;24.416;2022-09-17T00:21:39;13.10;99.90
20158;DHT22;10239;56.820;24.416;2022-09-17T00:24:08;13.10;99.90
20158;DHT22;10239;56.820;24.416;2022-09-17T00:26:36;13.10;99.90
20158;DHT22;10239;56.820;24.416;2022-09-17T00:29:04;13.10;99.90
20158;DHT22;10239;56.820;24.416;2022-09-17T00:31:32;13.10;99.90
20158;DHT22;10239;56.820;24.416;2022-09-17T00:34:01;12.90;99.90
20158;DHT22;10239;56.820;24.416;2022-09-17T00:36:29;12.90;99.90
20158;DHT22;10239;56.820;24.416;2022-09-17T00:38:58;13.00;99.90
20158;DHT22;10239;56.820;24.416;2022-09-17T00:41:29;12.90;99.90
20158;DHT22;10239;56.820;24.416;2022-09-17T00:44:37;12.90;99.90
20158;DHT22;10239;56.820;24.416;2022-09-17T00:46:49;12.80;99.90
20158;DHT22;10239;56.820;24.416;2022-09-17T00:49:23;12.90;99.90
20158;DHT22;10239;56.820;24.416;2022-09-17T00:52:04;12.80;99.90
20158;DHT22;10239;56.820;24.416;2022-09-17T00:54:37;12.70;99.90
20158;DHT22;10239;56.820;24.416;2022-09-17T00:57:06;12.80;99.90
20158;DHT22;10239;56.820;24.416;2022-09-17T00:59:34;12.70;99.90
20158;DHT22;10239;56.820;24.416;2022-09-17T01:02:02;12.80;99.90
20158;DHT22;10239;56.820;24.416;2022-09-17T01:04:30;12.80;99.90
20158;DHT22;10239;56.820;24.416;2022-09-17T01:07:05;12.80;99.90
20158;DHT22;10239;56.820;24.416;2022-09-17T01:12:35;12.80;99.90
20158;DHT22;10239;56.820;24.416;2022-09-17T01:21:08;12.40;99.90
20158;DHT22;10239;56.820;24.416;2022-09-17T01:29:39;12.70;99.90
20158;DHT22;10239;56.820;24.416;2022-09-17T01:35:04;12.70;99.90
20158;DHT22;10239;56.820;24.416;2022-09-17T01:40:28;12.70;99.90
20158;DHT22;10239;56.820;24.416;2022-09-17T01:45:48;12.80;99.90
20158;DHT22;10239;56.820;24.416;2022-09-17T01:48:18;12.80;99.90
20158;DHT22;10239;56.820;24.416;2022-09-17T01:50:54;12.70;99.90
20158;DHT22;10239;56.820;24.416;2022-09-17T01:53:48;12.70;99.90
20158;DHT22;10239;56.820;24.416;2022-09-17T01:56:21;12.80;99.90
20158;DHT22;10239;56.820;24.416;2022-09-17T01:58:58;12.70;99.90
20158;DHT22;10239;56.820;24.416;2022-09-17T02:01:29;12.80;99.90
20158;DHT22;10239;56.820;24.416;2022-09-17T02:04:02;12.80;99.90
20158;DHT22;10239;56.820;24.416;2022-09-17T02:06:36;12.90;99.90
20158;DHT22;10239;56.820;24.416;2022-09-17T02:09:24;12.90;99.90
20158;DHT22;10239;56.820;24.416;2022-09-17T02:11:57;12.90;99.90
20158;DHT22;10239;56.820;24.416;2022-09-17T02:14:34;12.90;99.90
20158;DHT22;10239;56.820;24.416;2022-09-17T02:17:14;12.80;99.90
20158;DHT22;10239;56.820;24.416;2022-09-17T02:19:47;12.90;99.90
20158;DHT22;10239;56.820;24.416;2022-09-17T02:28:01;12.70;99.90
20158;DHT22;10239;56.820;24.416;2022-09-17T02:30:30;12.60;99.90
20158;DHT22;10239;56.820;24.416;2022-09-17T02:33:02;12.60;99.90
20158;DHT22;10239;56.820;24.416;2022-09-17T02:35:31;12.60;99.90
20158;DHT22;10239;56.820;24.416;2022-09-17T02:37:59;12.60;99.90
20158;DHT22;10239;56.820;24.416;2022-09-17T02:40:30;12.50;99.90
20158;DHT22;10239;56.820;24.416;2022-09-17T02:46:09;12.50;99.90
20158;DHT22;10239;56.820;24.416;2022-09-17T02:49:08;12.50;99.90
20158;DHT22;10239;56.820;24.416;2022-09-17T02:54:29;12.50;99.90
20158;DHT22;10239;56.820;24.416;2022-09-17T02:59:38;12.60;99.90
20158;DHT22;10239;56.820;24.416;2022-09-17T03:02:29;12.60;99.90
20158;DHT22;10239;56.820;24.416;2022-09-17T03:04:59;12.40;99.90
20158;DHT22;10239;56.820;24.416;2022-09-17T03:07:27;12.40;99.90
20158;DHT22;10239;56.820;24.416;2022-09-17T03:09:55;12.20;99.90
20158;DHT22;10239;56.820;24.416;2022-09-17T03:12:23;12.00;99.90
20158;DHT22;10239;56.820;24.416;2022-09-17T03:14:51;12.20;99.90
20158;DHT22;10239;56.820;24.416;2022-09-17T03:17:18;12.20;99.90
20158;DHT22;10239;56.820;24.416;2022-09-17T03:19:46;12.20;99.90
20158;DHT22;10239;56.820;24.416;2022-09-17T03:22:14;12.30;99.90
20158;DHT22;10239;56.820;24.416;2022-09-17T03:24:41;12.10;99.90
20158;DHT22;10239;56.820;24.416;2022-09-17T03:27:09;12.20;99.90
20158;DHT22;10239;56.820;24.416;2022-09-17T03:29:36;12.30;99.90
20158;DHT22;10239;56.820;24.416;2022-09-17T03:32:04;12.30;99.90
20158;DHT22;10239;56.820;24.416;2022-09-17T03:34:32;12.30;99.90
20158;DHT22;10239;56.820;24.416;2022-09-17T03:36:59;12.30;99.90
20158;DHT22;10239;56.820;24.416;2022-09-17T03:39:28;12.30;99.90
20158;DHT22;10239;56.820;24.416;2022-09-17T03:41:55;12.40;99.90
20158;DHT22;10239;56.820;24.416;2022-09-17T03:44:23;12.30;99.90
20158;DHT22;10239;56.820;24.416;2022-09-17T03:46:50;12.40;99.90
20158;DHT22;10239;56.820;24.416;2022-09-17T03:49:18;12.40;99.90
20158;DHT22;10239;56.820;24.416;2022-09-17T03:51:46;12.20;99.90
20158;DHT22;10239;56.820;24.416;2022-09-17T03:54:13;12.30;99.90
20158;DHT22;10239;56.820;24.416;2022-09-17T03:56:41;12.20;99.90
20158;DHT22;10239;56.820;24.416;2022-09-17T03:59:08;12.30;99.90
20158;DHT22;10239;56.820;24.416;2022-09-17T04:01:36;12.30;99.90
20158;DHT22;10239;56.820;24.416;2022-09-17T04:04:04;12.40;99.90
20158;DHT22;10239;56.820;24.416;2022-09-17T04:06:31;12.40;99.90
20158;DHT22;10239;56.820;24.416;2022-09-17T04:08:59;12.30;99.90
20158;DHT22;10239;56.820;24.416;2022-09-17T04:11:27;12.40;99.90
20158;DHT22;10239;56.820;24.416;2022-09-17T04:13:54;12.40;99.90
20158;DHT22;10239;56.820;24.416;2022-09-17T04:16:22;12.40;99.90
20158;DHT22;10239;56.820;24.416;2022-09-17T04:18:49;12.40;99.90
20158;DHT22;10239;56.820;24.416;2022-09-17T04:21:17;12.40;99.90
20158;DHT22;10239;56.820;24.416;2022-09-17T04:23:44;12.40;99.90
20158;DHT22;10239;56.820;24.416;2022-09-17T04:26:11;12.40;99.90
20158;DHT22;10239;56.820;24.416;2022-09-17T04:28:39;12.40;99.90
20158;DHT22;10239;56.820;24.416;2022-09-17T04:31:06;12.50;99.90
20158;DHT22;10239;56.820;24.416;2022-09-17T04:33:34;12.50;99.90
20158;DHT22;10239;56.820;24.416;2022-09-17T04:36:02;12.60;99.90
20158;DHT22;10239;56.820;24.416;2022-09-17T04:38:29;12.60;99.90
20158;DHT22;10239;56.820;24.416;2022-09-17T04:40:57;12.70;99.90
20158;DHT22;10239;56.820;24.416;2022-09-17T04:43:24;12.70;99.90
20158;DHT22;10239;56.820;24.416;2022-09-17T04:45:51;12.60;99.90
20158;DHT22;10239;56.820;24.416;2022-09-17T04:48:19;12.70;99.90
20158;DHT22;10239;56.820;24.416;2022-09-17T04:50:46;12.80;99.90
20158;DHT22;10239;56.820;24.416;2022-09-17T04:53:14;12.80;99.90
20158;DHT22;10239;56.820;24.416;2022-09-17T04:55:42;12.90;99.90
20158;DHT22;10239;56.820;24.416;2022-09-17T04:58:10;12.90;99.90
20158;DHT22;10239;56.820;24.416;2022-09-17T05:00:37;12.90;99.90
20158;DHT22;10239;56.820;24.416;2022-09-17T05:03:05;12.90;99.90
20158;DHT22;10239;56.820;24.416;2022-09-17T05:05:33;12.90;99.90
20158;DHT22;10239;56.820;24.416;2022-09-17T05:08:00;13.00;99.90
20158;DHT22;10239;56.820;24.416;2022-09-17T05:10:28;13.00;99.90
20158;DHT22;10239;56.820;24.416;2022-09-17T05:12:56;13.10;99.90
20158;DHT22;10239;56.820;24.416;2022-09-17T05:15:24;13.00;99.90
20158;DHT22;10239;56.820;24.416;2022-09-17T05:17:52;13.00;99.90
20158;DHT22;10239;56.820;24.416;2022-09-17T05:20:20;13.00;99.90
20158;DHT22;10239;56.820;24.416;2022-09-17T05:22:50;13.10;99.90
20158;DHT22;10239;56.820;24.416;2022-09-17T05:25:20;13.20;99.90
20158;DHT22;10239;56.820;24.416;2022-09-17T05:27:54;13.10;99.90
20158;DHT22;10239;56.820;24.416;2022-09-17T05:30:22;13.20;99.90
20158;DHT22;10239;56.820;24.416;2022-09-17T05:32:58;13.20;99.90
20158;DHT22;10239;56.820;24.416;2022-09-17T05:35:26;13.30;99.90
20158;DHT22;10239;56.820;24.416;2022-09-17T05:38:04;13.20;99.90
20158;DHT22;10239;56.820;24.416;2022-09-17T05:40:34;13.30;99.90
20158;DHT22;10239;56.820;24.416;2022-09-17T05:43:04;13.40;99.90
20158;DHT22;10239;56.820;24.416;2022-09-17T05:45:33;13.40;99.90
20158;DHT22;10239;56.820;24.416;2022-09-17T05:48:02;13.30;99.90
20158;DHT22;10239;56.820;24.416;2022-09-17T05:50:31;13.30;99.90
20158;DHT22;10239;56.820;24.416;2022-09-17T05:53:11;13.40;99.90
20158;DHT22;10239;56.820;24.416;2022-09-17T05:55:39;13.50;99.90
20158;DHT22;10239;56.820;24.416;2022-09-17T05:58:14;13.60;99.90
20158;DHT22;10239;56.820;24.416;2022-09-17T06:00:43;13.60;99.90
20158;DHT22;10239;56.820;24.416;2022-09-17T06:03:16;13.60;99.90
20158;DHT22;10239;56.820;24.416;2022-09-17T06:05:53;13.60;99.90
20158;DHT22;10239;56.820;24.416;2022-09-17T06:08:21;13.50;99.90
20158;DHT22;10239;56.820;24.416;2022-09-17T06:10:49;13.60;99.90
20158;DHT22;10239;56.820;24.416;2022-09-17T06:13:17;13.60;99.90
20158;DHT22;10239;56.820;24.416;2022-09-17T06:15:52;13.70;99.90
20158;DHT22;10239;56.820;24.416;2022-09-17T06:18:20;13.80;99.90
20158;DHT22;10239;56.820;24.416;2022-09-17T06:20:55;13.90;99.90
20158;DHT22;10239;56.820;24.416;2022-09-17T06:23:24;14.00;99.90
20158;DHT22;10239;56.820;24.416;2022-09-17T06:25:57;14.10;99.90
20158;DHT22;10239;56.820;24.416;2022-09-17T06:28:26;14.00;99.90
20158;DHT22;10239;56.820;24.416;2022-09-17T06:30:59;14.00;99.90
20158;DHT22;10239;56.820;24.416;2022-09-17T06:33:27;14.10;99.90
20158;DHT22;10239;56.820;24.416;2022-09-17T06:35:59;14.20;99.90
20158;DHT22;10239;56.820;24.416;2022-09-17T06:38:27;14.40;99.90
20158;DHT22;10239;56.820;24.416;2022-09-17T06:40:55;14.40;99.90
20158;DHT22;10239;56.820;24.416;2022-09-17T06:43:23;14.40;99.90
20158;DHT22;10239;56.820;24.416;2022-09-17T06:45:59;14.40;99.90
20158;DHT22;10239;56.820;24.416;2022-09-17T06:48:29;14.40;99.90
20158;DHT22;10239;56.820;24.416;2022-09-17T06:51:02;14.50;99.90
20158;DHT22;10239;56.820;24.416;2022-09-17T06:53:30;14.50;99.90
20158;DHT22;10239;56.820;24.416;2022-09-17T06:55:59;14.50;99.90
20158;DHT22;10239;56.820;24.416;2022-09-17T06:58:33;14.60;99.90
20158;DHT22;10239;56.820;24.416;2022-09-17T07:01:04;14.70;99.90
20158;DHT22;10239;56.820;24.416;2022-09-17T07:03:32;14.90;99.90
20158;DHT22;10239;56.820;24.416;2022-09-17T07:06:01;15.00;99.90
20158;DHT22;10239;56.820;24.416;2022-09-17T07:08:31;15.00;99.90
20158;DHT22;10239;56.820;24.416;2022-09-17T07:11:01;15.00;99.90
20158;DHT22;10239;56.820;24.416;2022-09-17T07:13:28;14.90;99.90
20158;DHT22;10239;56.820;24.416;2022-09-17T07:15:58;14.90;99.90
20158;DHT22;10239;56.820;24.416;2022-09-17T07:18:26;14.90;99.90
20158;DHT22;10239;56.820;24.416;2022-09-17T07:20:56;14.90;99.90
20158;DHT22;10239;56.820;24.416;2022-09-17T07:23:26;15.00;99.90
20158;DHT22;10239;56.820;24.416;2022-09-17T07:25:55;15.20;99.90
20158;DHT22;10239;56.820;24.416;2022-09-17T07:28:24;15.30;99.90
20158;DHT22;10239;56.820;24.416;2022-09-17T07:30:52;15.30;99.90
20158;DHT22;10239;56.820;24.416;2022-09-17T07:33:21;15.70;99.90
20158;DHT22;10239;56.820;24.416;2022-09-17T07:36:05;15.80;99.90
20158;DHT22;10239;56.820;24.416;2022-09-17T07:38:33;15.90;99.90
20158;DHT22;10239;56.820;24.416;2022-09-17T07:43:32;16.10;99.90
20158;DHT22;10239;56.820;24.416;2022-09-17T07:46:02;16.00;99.90
20158;DHT22;10239;56.820;24.416;2022-09-17T07:48:30;16.20;99.90
20158;DHT22;10239;56.820;24.416;2022-09-17T07:50:58;16.60;99.90
20158;DHT22;10239;56.820;24.416;2022-09-17T07:53:26;16.70;99.90
20158;DHT22;10239;56.820;24.416;2022-09-17T07:55:59;16.70;99.90
20158;DHT22;10239;56.820;24.416;2022-09-17T07:58:34;16.60;99.90
20158;DHT22;10239;56.820;24.416;2022-09-17T08:01:08;16.90;99.90
20158;DHT22;10239;56.820;24.416;2022-09-17T08:03:39;17.00;99.90
20158;DHT22;10239;56.820;24.416;2022-09-17T08:06:12;17.30;99.90
20158;DHT22;10239;56.820;24.416;2022-09-17T08:08:40;17.30;99.90
20158;DHT22;10239;56.820;24.416;2022-09-17T08:11:13;17.20;99.90
20158;DHT22;10239;56.820;24.416;2022-09-17T08:13:54;17.90;99.90
20158;DHT22;10239;56.820;24.416;2022-09-17T08:16:23;20.30;99.90
20158;DHT22;10239;56.820;24.416;2022-09-17T08:18:55;21.80;99.90
20158;DHT22;10239;56.820;24.416;2022-09-17T08:21:23;22.60;99.90
20158;DHT22;10239;56.820;24.416;2022-09-17T08:23:51;23.10;99.90
20158;DHT22;10239;56.820;24.416;2022-09-17T08:26:20;24.40;99.90
20158;DHT22;10239;56.820;24.416;2022-09-17T08:28:50;25.00;99.90
20158;DHT22;10239;56.820;24.416;2022-09-17T08:31:21;25.40;99.90
20158;DHT22;10239;56.820;24.416;2022-09-17T08:33:50;25.40;99.90
20158;DHT22;10239;56.820;24.416;2022-09-17T08:36:18;24.90;99.90
20158;DHT22;10239;56.820;24.416;2022-09-17T08:38:50;24.50;99.90
20158;DHT22;10239;56.820;24.416;2022-09-17T08:44:02;23.30;99.90
20158;DHT22;10239;56.820;24.416;2022-09-17T08:47:01;22.20;99.90
20158;DHT22;10239;56.820;24.416;2022-09-17T08:49:47;21.10;99.90
20158;DHT22;10239;56.820;24.416;2022-09-17T09:07:04;20.20;99.90
20158;DHT22;10239;56.820;24.416;2022-09-17T09:09:49;20.10;99.90
20158;DHT22;10239;56.820;24.416;2022-09-17T09:12:25;20.20;99.90
20158;DHT22;10239;56.820;24.416;2022-09-17T09:15:00;20.40;99.90
20158;DHT22;10239;56.820;24.416;2022-09-17T09:17:42;20.10;99.90
20158;DHT22;10239;56.820;24.416;2022-09-17T09:20:50;21.00;99.90
20158;DHT22;10239;56.820;24.416;2022-09-17T09:25:56;22.20;99.90
20158;DHT22;10239;56.820;24.416;2022-09-17T09:34:13;22.30;99.90
20158;DHT22;10239;56.820;24.416;2022-09-17T09:36:41;21.50;99.90
20158;DHT22;10239;56.820;24.416;2022-09-17T09:39:21;20.90;99.90
20158;DHT22;10239;56.820;24.416;2022-09-17T09:41:57;20.30;99.90
20158;DHT22;10239;56.820;24.416;2022-09-17T09:44:27;19.70;99.90
20158;DHT22;10239;56.820;24.416;2022-09-17T09:47:34;19.40;99.90
20158;DHT22;10239;56.820;24.416;2022-09-17T09:56:00;19.30;99.90
20158;DHT22;10239;56.820;24.416;2022-09-17T09:58:37;19.10;99.90
20158;DHT22;10239;56.820;24.416;2022-09-17T10:01:18;19.10;99.90
20158;DHT22;10239;56.820;24.416;2022-09-17T10:03:52;19.00;99.90
20158;DHT22;10239;56.820;24.416;2022-09-17T10:06:21;18.90;99.90
20158;DHT22;10239;56.820;24.416;2022-09-17T10:11:28;18.70;99.90
20158;DHT22;10239;56.820;24.416;2022-09-17T10:14:19;19.10;99.90
20158;DHT22;10239;56.820;24.416;2022-09-17T10:16:48;19.40;99.90
20158;DHT22;10239;56.820;24.416;2022-09-17T10:19:20;19.30;99.90
20158;DHT22;10239;56.820;24.416;2022-09-17T10:21:51;19.30;99.90
20158;DHT22;10239;56.820;24.416;2022-09-17T10:24:33;19.20;99.90
20158;DHT22;10239;56.820;24.416;2022-09-17T10:27:04;19.90;99.90
20158;DHT22;10239;56.820;24.416;2022-09-17T10:29:33;20.50;99.90
20158;DHT22;10239;56.820;24.416;2022-09-17T10:32:01;20.40;99.90
20158;DHT22;10239;56.820;24.416;2022-09-17T10:34:33;20.40;99.90
20158;DHT22;10239;56.820;24.416;2022-09-17T10:37:01;20.40;99.90
20158;DHT22;10239;56.820;24.416;2022-09-17T10:39:35;20.40;99.90
20158;DHT22;10239;56.820;24.416;2022-09-17T10:42:12;20.40;99.90
20158;DHT22;10239;56.820;24.416;2022-09-17T10:44:57;20.50;99.90
20158;DHT22;10239;56.820;24.416;2022-09-17T10:47:29;20.80;99.90
20158;DHT22;10239;56.820;24.416;2022-09-17T10:50:06;20.60;99.90
20158;DHT22;10239;56.820;24.416;2022-09-17T10:52:46;20.70;99.90
20158;DHT22;10239;56.820;24.416;2022-09-17T10:55:54;21.10;99.90
20158;DHT22;10239;56.820;24.416;2022-09-17T11:09:58;19.50;99.90
20158;DHT22;10239;56.820;24.416;2022-09-17T11:18:53;18.40;99.90
20158;DHT22;10239;56.820;24.416;2022-09-17T11:21:37;18.10;99.90
20158;DHT22;10239;56.820;24.416;2022-09-17T11:32:09;17.70;99.90
20158;DHT22;10239;56.820;24.416;2022-09-17T11:37:25;18.30;99.90
20158;DHT22;10239;56.820;24.416;2022-09-17T11:39:58;18.80;99.90
20158;DHT22;10239;56.820;24.416;2022-09-17T11:42:32;19.10;99.90
20158;DHT22;10239;56.820;24.416;2022-09-17T11:45:16;19.20;99.90
20158;DHT22;10239;56.820;24.416;2022-09-17T11:47:59;19.10;99.90
20158;DHT22;10239;56.820;24.416;2022-09-17T11:50:41;19.00;99.90
20158;DHT22;10239;56.820;24.416;2022-09-17T11:53:15;18.80;99.90
20158;DHT22;10239;56.820;24.416;2022-09-17T11:55:45;18.50;99.90
20158;DHT22;10239;56.820;24.416;2022-09-17T11:58:41;18.20;99.90
20158;DHT22;10239;56.820;24.416;2022-09-17T12:01:15;17.70;99.90
20158;DHT22;10239;56.820;24.416;2022-09-17T12:03:54;17.50;99.90
20158;DHT22;10239;56.820;24.416;2022-09-17T12:06:37;17.50;99.90
20158;DHT22;10239;56.820;24.416;2022-09-17T12:09:15;17.90;99.90
20158;DHT22;10239;56.820;24.416;2022-09-17T12:14:42;19.20;99.90
20158;DHT22;10239;56.820;24.416;2022-09-17T12:17:17;19.10;99.90
20158;DHT22;10239;56.820;24.416;2022-09-17T12:19:53;19.20;99.90
20158;DHT22;10239;56.820;24.416;2022-09-17T12:22:25;19.20;99.90
20158;DHT22;10239;56.820;24.416;2022-09-17T12:24:53;19.00;99.90
20158;DHT22;10239;56.820;24.416;2022-09-17T12:27:37;18.80;99.90
20158;DHT22;10239;56.820;24.416;2022-09-17T12:30:19;18.50;99.90
20158;DHT22;10239;56.820;24.416;2022-09-17T12:44:39;17.30;99.90
20158;DHT22;10239;56.820;24.416;2022-09-17T12:50:45;17.10;99.90
20158;DHT22;10239;56.820;24.416;2022-09-17T12:53:23;16.80;99.90
20158;DHT22;10239;56.820;24.416;2022-09-17T12:56:15;16.60;99.90
20158;DHT22;10239;56.820;24.416;2022-09-17T13:01:54;16.70;99.90
20158;DHT22;10239;56.820;24.416;2022-09-17T13:10:36;16.80;99.90
20158;DHT22;10239;56.820;24.416;2022-09-17T13:16:15;17.70;99.90
20158;DHT22;10239;56.820;24.416;2022-09-17T13:24:29;19.10;99.90
20158;DHT22;10239;56.820;24.416;2022-09-17T13:26:59;19.40;99.90
20158;DHT22;10239;56.820;24.416;2022-09-17T13:37:57;19.80;99.90
20158;DHT22;10239;56.820;24.416;2022-09-17T13:40:33;19.90;99.90
20158;DHT22;10239;56.820;24.416;2022-09-17T13:43:08;19.80;99.90
20158;DHT22;10239;56.820;24.416;2022-09-17T13:48:29;19.70;99.90
20158;DHT22;10239;56.820;24.416;2022-09-17T13:54:02;20.00;99.90
20158;DHT22;10239;56.820;24.416;2022-09-17T13:56:46;20.20;99.90
20158;DHT22;10239;56.820;24.416;2022-09-17T13:59:22;20.10;99.90
20158;DHT22;10239;56.820;24.416;2022-09-17T14:05:31;19.80;99.90
20158;DHT22;10239;56.820;24.416;2022-09-17T14:08:23;19.50;99.90
20158;DHT22;10239;56.820;24.416;2022-09-17T14:10:59;19.10;99.90
20158;DHT22;10239;56.820;24.416;2022-09-17T14:13:40;19.10;99.90
20158;DHT22;10239;56.820;24.416;2022-09-17T14:24:48;18.60;99.90
20158;DHT22;10239;56.820;24.416;2022-09-17T14:35:34;18.50;99.90
20158;DHT22;10239;56.820;24.416;2022-09-17T14:38:31;18.60;99.90
20158;DHT22;10239;56.820;24.416;2022-09-17T14:41:03;18.80;99.90
20158;DHT22;10239;56.820;24.416;2022-09-17T14:44:07;19.00;99.90
20158;DHT22;10239;56.820;24.416;2022-09-17T14:46:50;19.00;99.90
20158;DHT22;10239;56.820;24.416;2022-09-17T14:51:50;18.50;99.90
20158;DHT22;10239;56.820;24.416;2022-09-17T14:54:26;18.40;99.90
20158;DHT22;10239;56.820;24.416;2022-09-17T14:57:09;18.30;99.90
20158;DHT22;10239;56.820;24.416;2022-09-17T14:59:51;18.20;99.90
20158;DHT22;10239;56.820;24.416;2022-09-17T15:02:39;18.00;99.90
20158;DHT22;10239;56.820;24.416;2022-09-17T15:05:33;17.90;99.90
20158;DHT22;10239;56.820;24.416;2022-09-17T15:08:20;17.60;99.90
20158;DHT22;10239;56.820;24.416;2022-09-17T15:10:58;17.20;99.90
20158;DHT22;10239;56.820;24.416;2022-09-17T15:13:34;16.90;99.90
20158;DHT22;10239;56.820;24.416;2022-09-17T15:16:19;16.60;99.90
20158;DHT22;10239;56.820;24.416;2022-09-17T15:18:57;16.40;99.90
20158;DHT22;10239;56.820;24.416;2022-09-17T15:24:12;16.30;99.90
20158;DHT22;10239;56.820;24.416;2022-09-17T15:26:43;16.10;99.90
20158;DHT22;10239;56.820;24.416;2022-09-17T15:29:14;16.10;99.90
20158;DHT22;10239;56.820;24.416;2022-09-17T15:31:41;16.00;99.90
20158;DHT22;10239;56.820;24.416;2022-09-17T15:34:12;15.80;99.90
20158;DHT22;10239;56.820;24.416;2022-09-17T15:36:39;15.70;99.90
20158;DHT22;10239;56.820;24.416;2022-09-17T15:39:41;15.60;99.90
20158;DHT22;10239;56.820;24.416;2022-09-17T15:42:29;15.60;99.90
20158;DHT22;10239;56.820;24.416;2022-09-17T15:45:19;15.60;99.90
20158;DHT22;10239;56.820;24.416;2022-09-17T15:47:51;15.60;99.90
20158;DHT22;10239;56.820;24.416;2022-09-17T15:50:35;15.60;99.90
20158;DHT22;10239;56.820;24.416;2022-09-17T15:53:22;15.50;99.90
20158;DHT22;10239;56.820;24.416;2022-09-17T16:08:58;15.30;99.90
20158;DHT22;10239;56.820;24.416;2022-09-17T16:11:29;15.30;99.90
20158;DHT22;10239;56.820;24.416;2022-09-17T16:13:58;15.20;99.90
20158;DHT22;10239;56.820;24.416;2022-09-17T16:16:33;15.10;99.90
20158;DHT22;10239;56.820;24.416;2022-09-17T16:19:01;15.10;99.90
20158;DHT22;10239;56.820;24.416;2022-09-17T16:21:29;15.00;99.90
20158;DHT22;10239;56.820;24.416;2022-09-17T16:23:57;15.00;99.90
20158;DHT22;10239;56.820;24.416;2022-09-17T16:26:28;15.00;99.90
20158;DHT22;10239;56.820;24.416;2022-09-17T16:29:02;14.90;99.90
20158;DHT22;10239;56.820;24.416;2022-09-17T16:31:31;14.80;99.90
20158;DHT22;10239;56.820;24.416;2022-09-17T16:33:59;14.60;99.90
20158;DHT22;10239;56.820;24.416;2022-09-17T16:36:27;14.40;99.90
20158;DHT22;10239;56.820;24.416;2022-09-17T16:38:58;14.30;99.90
20158;DHT22;10239;56.820;24.416;2022-09-17T16:41:25;14.30;99.90
20158;DHT22;10239;56.820;24.416;2022-09-17T16:43:52;14.20;99.90
20158;DHT22;10239;56.820;24.416;2022-09-17T16:46:20;14.10;99.90
20158;DHT22;10239;56.820;24.416;2022-09-17T16:48:50;14.00;99.90
20158;DHT22;10239;56.820;24.416;2022-09-17T16:51:18;13.90;99.90
20158;DHT22;10239;56.820;24.416;2022-09-17T16:53:46;13.80;99.90
20158;DHT22;10239;56.820;24.416;2022-09-17T16:56:14;13.80;99.90
20158;DHT22;10239;56.820;24.416;2022-09-17T16:58:42;13.70;99.90
20158;DHT22;10239;56.820;24.416;2022-09-17T17:01:11;13.70;99.90
20158;DHT22;10239;56.820;24.416;2022-09-17T17:03:39;13.50;99.90
20158;DHT22;10239;56.820;24.416;2022-09-17T17:06:18;13.50;99.90
20158;DHT22;10239;56.820;24.416;2022-09-17T17:08:47;13.50;99.90
20158;DHT22;10239;56.820;24.416;2022-09-17T17:11:14;13.40;99.90
20158;DHT22;10239;56.820;24.416;2022-09-17T17:13:42;13.40;99.90
20158;DHT22;10239;56.820;24.416;2022-09-17T17:16:12;13.40;99.90
20158;DHT22;10239;56.820;24.416;2022-09-17T17:18:43;13.50;99.90
20158;DHT22;10239;56.820;24.416;2022-09-17T17:21:12;13.50;99.90
20158;DHT22;10239;56.820;24.416;2022-09-17T17:23:40;13.50;99.90
20158;DHT22;10239;56.820;24.416;2022-09-17T17:26:09;13.50;99.90
20158;DHT22;10239;56.820;24.416;2022-09-17T17:28:37;13.50;99.90
20158;DHT22;10239;56.820;24.416;2022-09-17T17:31:05;13.50;99.90
20158;DHT22;10239;56.820;24.416;2022-09-17T17:33:33;13.60;99.90
20158;DHT22;10239;56.820;24.416;2022-09-17T17:36:02;13.70;99.90
20158;DHT22;10239;56.820;24.416;2022-09-17T17:38:35;13.60;99.90
20158;DHT22;10239;56.820;24.416;2022-09-17T17:43:31;13.60;99.90
20158;DHT22;10239;56.820;24.416;2022-09-17T17:45:59;13.50;99.90
20158;DHT22;10239;56.820;24.416;2022-09-17T17:48:26;13.60;99.90
20158;DHT22;10239;56.820;24.416;2022-09-17T17:50:59;13.50;99.90
20158;DHT22;10239;56.820;24.416;2022-09-17T17:53:27;13.50;99.90
20158;DHT22;10239;56.820;24.416;2022-09-17T17:55:59;13.40;99.90
20158;DHT22;10239;56.820;24.416;2022-09-17T17:58:27;13.50;99.90
20158;DHT22;10239;56.820;24.416;2022-09-17T18:00:55;13.60;99.90
20158;DHT22;10239;56.820;24.416;2022-09-17T18:03:23;13.60;99.90
20158;DHT22;10239;56.820;24.416;2022-09-17T18:05:54;13.60;99.90
20158;DHT22;10239;56.820;24.416;2022-09-17T18:08:26;13.70;99.90
20158;DHT22;10239;56.820;24.416;2022-09-17T18:10:56;13.80;99.90
20158;DHT22;10239;56.820;24.416;2022-09-17T18:13:23;13.90;99.90
20158;DHT22;10239;56.820;24.416;2022-09-17T18:15:56;13.90;99.90
20158;DHT22;10239;56.820;24.416;2022-09-17T18:18:33;13.80;99.90
20158;DHT22;10239;56.820;24.416;2022-09-17T18:21:05;13.90;99.90
20158;DHT22;10239;56.820;24.416;2022-09-17T18:23:34;13.80;99.90
20158;DHT22;10239;56.820;24.416;2022-09-17T18:26:03;13.80;99.90
20158;DHT22;10239;56.820;24.416;2022-09-17T18:28:34;13.80;99.90
20158;DHT22;10239;56.820;24.416;2022-09-17T18:31:26;13.70;99.90
20158;DHT22;10239;56.820;24.416;2022-09-17T18:34:11;13.80;99.90
20158;DHT22;10239;56.820;24.416;2022-09-17T18:36:40;13.80;99.90
20158;DHT22;10239;56.820;24.416;2022-09-17T18:39:10;13.80;99.90
20158;DHT22;10239;56.820;24.416;2022-09-17T18:41:59;13.80;99.90
20158;DHT22;10239;56.820;24.416;2022-09-17T18:44:26;13.80;99.90
20158;DHT22;10239;56.820;24.416;2022-09-17T18:46:54;13.80;99.90
20158;DHT22;10239;56.820;24.416;2022-09-17T18:49:21;13.80;99.90
20158;DHT22;10239;56.820;24.416;2022-09-17T18:51:49;13.80;99.90
20158;DHT22;10239;56.820;24.416;2022-09-17T18:54:16;13.70;99.90
20158;DHT22;10239;56.820;24.416;2022-09-17T18:56:44;13.70;99.90
20158;DHT22;10239;56.820;24.416;2022-09-17T18:59:11;13.70;99.90
20158;DHT22;10239;56.820;24.416;2022-09-17T19:01:39;13.70;99.90
20158;DHT22;10239;56.820;24.416;2022-09-17T19:04:06;13.70;99.90